HE35 weather

Abu Suwayr Air Base
Abu Suwayr, Ismailia Governorate, Egypt

Public forecast

Using degrees Celsius for public forecast. Weather courtesy of forecast.io.

METAR (pilot weather report)

Closest report is Port Said Airport, 43.1 nm (79.8 km) N. Retrieved 2019/04/20 15:00 UTC (52 minutes ago):

HEPS 201500Z 30018KT 9999 FEW025 18/11 Q1016 NOSIG

TAF (pilot weather forecast)

Closest forecast is Port Said Airport, 43.1 nm (79.8 km) N. Retrieved 2019/04/20 12:30 UTC (3 hours ago):

TAF HEPS 201100Z 2012/2118 28012KT 9999 SCT025